sensor_id;sensor_type;location;lat;lon;timestamp;P1;durP1;ratioP1;P2;durP2;ratioP2
68718;SDS011;55696;52.138;5.444;2023-10-09T00:02:10;42.15;;;18.10;;
68718;SDS011;55696;52.138;5.444;2023-10-09T00:04:41;44.30;;;19.00;;
68718;SDS011;55696;52.138;5.444;2023-10-09T00:07:09;49.38;;;20.75;;
68718;SDS011;55696;52.138;5.444;2023-10-09T00:09:37;37.85;;;16.85;;
68718;SDS011;55696;52.138;5.444;2023-10-09T00:12:15;41.55;;;18.63;;
68718;SDS011;55696;52.138;5.444;2023-10-09T00:14:43;43.80;;;20.75;;
68718;SDS011;55696;52.138;5.444;2023-10-09T00:17:17;50.17;;;19.90;;
68718;SDS011;55696;52.138;5.444;2023-10-09T00:19:48;42.67;;;16.65;;
68718;SDS011;55696;52.138;5.444;2023-10-09T00:22:21;48.15;;;18.38;;
68718;SDS011;55696;52.138;5.444;2023-10-09T00:24:54;44.67;;;18.77;;
68718;SDS011;55696;52.138;5.444;2023-10-09T00:27:41;55.55;;;20.52;;
68718;SDS011;55696;52.138;5.444;2023-10-09T00:30:10;43.73;;;19.73;;
68718;SDS011;55696;52.138;5.444;2023-10-09T00:32:45;39.13;;;17.73;;
68718;SDS011;55696;52.138;5.444;2023-10-09T00:35:28;38.47;;;18.65;;
68718;SDS011;55696;52.138;5.444;2023-10-09T00:38:24;42.58;;;18.25;;
68718;SDS011;55696;52.138;5.444;2023-10-09T00:40:58;34.00;;;15.55;;
68718;SDS011;55696;52.138;5.444;2023-10-09T00:43:34;47.37;;;18.17;;
68718;SDS011;55696;52.138;5.444;2023-10-09T00:46:04;36.65;;;17.27;;
68718;SDS011;55696;52.138;5.444;2023-10-09T00:48:59;38.25;;;18.00;;
68718;SDS011;55696;52.138;5.444;2023-10-09T00:51:29;38.70;;;17.67;;
68718;SDS011;55696;52.138;5.444;2023-10-09T00:54:02;33.22;;;15.43;;
68718;SDS011;55696;52.138;5.444;2023-10-09T00:56:41;36.27;;;16.60;;
68718;SDS011;55696;52.138;5.444;2023-10-09T00:59:18;38.63;;;17.30;;
68718;SDS011;55696;52.138;5.444;2023-10-09T01:01:47;37.90;;;18.20;;
68718;SDS011;55696;52.138;5.444;2023-10-09T01:04:24;36.47;;;17.17;;
68718;SDS011;55696;52.138;5.444;2023-10-09T01:06:55;35.45;;;15.90;;
68718;SDS011;55696;52.138;5.444;2023-10-09T01:09:36;35.77;;;15.80;;
68718;SDS011;55696;52.138;5.444;2023-10-09T01:12:05;42.03;;;17.92;;
68718;SDS011;55696;52.138;5.444;2023-10-09T01:14:32;39.53;;;17.90;;
68718;SDS011;55696;52.138;5.444;2023-10-09T01:17:03;30.77;;;15.60;;
68718;SDS011;55696;52.138;5.444;2023-10-09T01:19:51;36.05;;;17.13;;
68718;SDS011;55696;52.138;5.444;2023-10-09T01:22:22;32.50;;;15.37;;
68718;SDS011;55696;52.138;5.444;2023-10-09T01:24:49;33.03;;;15.68;;
68718;SDS011;55696;52.138;5.444;2023-10-09T01:27:17;39.00;;;18.52;;
68718;SDS011;55696;52.138;5.444;2023-10-09T01:29:44;37.85;;;18.00;;
68718;SDS011;55696;52.138;5.444;2023-10-09T01:32:12;40.60;;;18.60;;
68718;SDS011;55696;52.138;5.444;2023-10-09T01:34:46;37.60;;;16.93;;
68718;SDS011;55696;52.138;5.444;2023-10-09T01:37:18;38.58;;;18.77;;
68718;SDS011;55696;52.138;5.444;2023-10-09T01:39:50;34.05;;;17.33;;
68718;SDS011;55696;52.138;5.444;2023-10-09T01:42:19;36.55;;;17.60;;
68718;SDS011;55696;52.138;5.444;2023-10-09T01:45:10;38.10;;;18.17;;
68718;SDS011;55696;52.138;5.444;2023-10-09T01:47:38;37.37;;;18.00;;
68718;SDS011;55696;52.138;5.444;2023-10-09T01:50:05;34.22;;;16.90;;
68718;SDS011;55696;52.138;5.444;2023-10-09T01:52:38;35.95;;;16.50;;
68718;SDS011;55696;52.138;5.444;2023-10-09T01:55:05;33.38;;;17.20;;
68718;SDS011;55696;52.138;5.444;2023-10-09T01:57:35;35.28;;;17.38;;
68718;SDS011;55696;52.138;5.444;2023-10-09T02:00:06;35.77;;;15.67;;
68718;SDS011;55696;52.138;5.444;2023-10-09T02:02:42;31.30;;;16.40;;
68718;SDS011;55696;52.138;5.444;2023-10-09T02:05:11;35.90;;;15.93;;
68718;SDS011;55696;52.138;5.444;2023-10-09T02:07:41;34.40;;;16.83;;
68718;SDS011;55696;52.138;5.444;2023-10-09T02:10:21;32.70;;;16.58;;
68718;SDS011;55696;52.138;5.444;2023-10-09T02:13:01;41.23;;;17.60;;
68718;SDS011;55696;52.138;5.444;2023-10-09T02:15:37;33.67;;;16.50;;
68718;SDS011;55696;52.138;5.444;2023-10-09T02:18:16;35.50;;;18.17;;
68718;SDS011;55696;52.138;5.444;2023-10-09T02:23:31;35.80;;;16.83;;
68718;SDS011;55696;52.138;5.444;2023-10-09T02:26:15;36.83;;;16.03;;
68718;SDS011;55696;52.138;5.444;2023-10-09T02:28:54;32.45;;;17.23;;
68718;SDS011;55696;52.138;5.444;2023-10-09T02:31:41;32.92;;;16.90;;
68718;SDS011;55696;52.138;5.444;2023-10-09T02:34:18;29.77;;;14.77;;
68718;SDS011;55696;52.138;5.444;2023-10-09T02:36:48;31.92;;;16.08;;
68718;SDS011;55696;52.138;5.444;2023-10-09T02:39:16;33.67;;;17.23;;
68718;SDS011;55696;52.138;5.444;2023-10-09T02:41:56;35.88;;;17.05;;
68718;SDS011;55696;52.138;5.444;2023-10-09T02:44:28;32.97;;;16.90;;
68718;SDS011;55696;52.138;5.444;2023-10-09T02:47:05;33.90;;;16.30;;
68718;SDS011;55696;52.138;5.444;2023-10-09T02:49:38;29.27;;;15.68;;
68718;SDS011;55696;52.138;5.444;2023-10-09T02:52:06;29.03;;;15.60;;
68718;SDS011;55696;52.138;5.444;2023-10-09T02:54:34;30.58;;;16.10;;
68718;SDS011;55696;52.138;5.444;2023-10-09T02:57:08;30.90;;;15.40;;
68718;SDS011;55696;52.138;5.444;2023-10-09T02:59:42;29.40;;;14.27;;
68718;SDS011;55696;52.138;5.444;2023-10-09T03:02:11;31.40;;;15.27;;
68718;SDS011;55696;52.138;5.444;2023-10-09T03:04:38;29.10;;;15.73;;
68718;SDS011;55696;52.138;5.444;2023-10-09T03:07:08;32.42;;;14.68;;
68718;SDS011;55696;52.138;5.444;2023-10-09T03:09:36;30.42;;;15.32;;
68718;SDS011;55696;52.138;5.444;2023-10-09T03:12:04;31.63;;;15.43;;
68718;SDS011;55696;52.138;5.444;2023-10-09T03:14:36;36.30;;;15.02;;
68718;SDS011;55696;52.138;5.444;2023-10-09T03:17:08;27.30;;;13.77;;
68718;SDS011;55696;52.138;5.444;2023-10-09T03:19:38;30.25;;;15.40;;
68718;SDS011;55696;52.138;5.444;2023-10-09T03:22:06;26.95;;;14.05;;
68718;SDS011;55696;52.138;5.444;2023-10-09T03:24:37;27.42;;;14.02;;
68718;SDS011;55696;52.138;5.444;2023-10-09T03:27:16;27.17;;;14.23;;
68718;SDS011;55696;52.138;5.444;2023-10-09T03:29:43;25.50;;;12.83;;
68718;SDS011;55696;52.138;5.444;2023-10-09T03:32:16;30.17;;;14.40;;
68718;SDS011;55696;52.138;5.444;2023-10-09T03:34:43;25.00;;;14.38;;
68718;SDS011;55696;52.138;5.444;2023-10-09T03:37:10;25.25;;;13.10;;
68718;SDS011;55696;52.138;5.444;2023-10-09T03:39:58;30.10;;;13.25;;
68718;SDS011;55696;52.138;5.444;2023-10-09T03:42:25;26.50;;;13.03;;
68718;SDS011;55696;52.138;5.444;2023-10-09T03:44:52;27.00;;;14.02;;
68718;SDS011;55696;52.138;5.444;2023-10-09T03:47:20;26.67;;;14.95;;
68718;SDS011;55696;52.138;5.444;2023-10-09T03:49:49;26.20;;;13.93;;
68718;SDS011;55696;52.138;5.444;2023-10-09T03:52:20;29.02;;;13.88;;
68718;SDS011;55696;52.138;5.444;2023-10-09T03:54:52;27.43;;;13.47;;
68718;SDS011;55696;52.138;5.444;2023-10-09T03:57:19;25.70;;;13.50;;
68718;SDS011;55696;52.138;5.444;2023-10-09T03:59:47;26.45;;;12.48;;
68718;SDS011;55696;52.138;5.444;2023-10-09T04:02:14;22.98;;;11.63;;
68718;SDS011;55696;52.138;5.444;2023-10-09T04:04:42;25.13;;;12.55;;
68718;SDS011;55696;52.138;5.444;2023-10-09T04:07:14;26.43;;;12.53;;
68718;SDS011;55696;52.138;5.444;2023-10-09T04:09:44;23.63;;;11.70;;
68718;SDS011;55696;52.138;5.444;2023-10-09T04:12:14;21.38;;;11.43;;
68718;SDS011;55696;52.138;5.444;2023-10-09T04:14:48;22.83;;;11.60;;
68718;SDS011;55696;52.138;5.444;2023-10-09T04:17:15;24.70;;;11.68;;
68718;SDS011;55696;52.138;5.444;2023-10-09T04:19:51;28.53;;;12.20;;
68718;SDS011;55696;52.138;5.444;2023-10-09T04:22:37;23.42;;;11.45;;
68718;SDS011;55696;52.138;5.444;2023-10-09T04:25:19;24.73;;;12.10;;
68718;SDS011;55696;52.138;5.444;2023-10-09T04:27:56;25.27;;;11.13;;
68718;SDS011;55696;52.138;5.444;2023-10-09T04:30:37;21.02;;;10.23;;
68718;SDS011;55696;52.138;5.444;2023-10-09T04:33:10;20.63;;;10.17;;
68718;SDS011;55696;52.138;5.444;2023-10-09T04:36:00;19.83;;;10.30;;
68718;SDS011;55696;52.138;5.444;2023-10-09T04:38:47;22.02;;;9.73;;
68718;SDS011;55696;52.138;5.444;2023-10-09T04:41:32;19.05;;;9.30;;
68718;SDS011;55696;52.138;5.444;2023-10-09T04:44:18;21.88;;;10.15;;
68718;SDS011;55696;52.138;5.444;2023-10-09T04:46:47;19.43;;;10.17;;
68718;SDS011;55696;52.138;5.444;2023-10-09T04:49:40;19.30;;;10.25;;
68718;SDS011;55696;52.138;5.444;2023-10-09T04:52:22;20.08;;;10.30;;
68718;SDS011;55696;52.138;5.444;2023-10-09T04:54:56;21.02;;;10.13;;
68718;SDS011;55696;52.138;5.444;2023-10-09T04:57:42;26.90;;;9.52;;
68718;SDS011;55696;52.138;5.444;2023-10-09T05:00:14;18.40;;;8.47;;
68718;SDS011;55696;52.138;5.444;2023-10-09T05:02:55;16.40;;;9.18;;
68718;SDS011;55696;52.138;5.444;2023-10-09T05:05:46;18.58;;;9.20;;
68718;SDS011;55696;52.138;5.444;2023-10-09T05:08:14;21.20;;;9.18;;
68718;SDS011;55696;52.138;5.444;2023-10-09T05:10:46;16.08;;;9.05;;
68718;SDS011;55696;52.138;5.444;2023-10-09T05:13:33;17.87;;;8.83;;
68718;SDS011;55696;52.138;5.444;2023-10-09T05:16:10;19.48;;;8.50;;
68718;SDS011;55696;52.138;5.444;2023-10-09T05:18:59;17.55;;;9.10;;
68718;SDS011;55696;52.138;5.444;2023-10-09T05:21:30;20.52;;;9.00;;
68718;SDS011;55696;52.138;5.444;2023-10-09T05:24:00;20.65;;;9.02;;
68718;SDS011;55696;52.138;5.444;2023-10-09T05:26:42;17.87;;;8.83;;
68718;SDS011;55696;52.138;5.444;2023-10-09T05:31:59;14.82;;;7.28;;
68718;SDS011;55696;52.138;5.444;2023-10-09T05:34:41;20.02;;;8.32;;
68718;SDS011;55696;52.138;5.444;2023-10-09T05:40:09;13.77;;;7.10;;
68718;SDS011;55696;52.138;5.444;2023-10-09T05:42:49;17.08;;;7.63;;
68718;SDS011;55696;52.138;5.444;2023-10-09T05:45:26;13.63;;;6.65;;
68718;SDS011;55696;52.138;5.444;2023-10-09T05:48:17;22.10;;;6.95;;
68718;SDS011;55696;52.138;5.444;2023-10-09T05:50:44;12.45;;;6.40;;
68718;SDS011;55696;52.138;5.444;2023-10-09T05:53:29;15.13;;;6.67;;
68718;SDS011;55696;52.138;5.444;2023-10-09T05:56:11;14.27;;;6.55;;
68718;SDS011;55696;52.138;5.444;2023-10-09T05:58:57;14.98;;;6.68;;
68718;SDS011;55696;52.138;5.444;2023-10-09T06:01:43;18.58;;;6.38;;
68718;SDS011;55696;52.138;5.444;2023-10-09T06:04:25;15.52;;;7.38;;
68718;SDS011;55696;52.138;5.444;2023-10-09T06:07:10;13.07;;;6.47;;
68718;SDS011;55696;52.138;5.444;2023-10-09T06:09:39;14.82;;;6.28;;
68718;SDS011;55696;52.138;5.444;2023-10-09T06:12:16;14.63;;;6.90;;
68718;SDS011;55696;52.138;5.444;2023-10-09T06:15:04;13.70;;;6.57;;
68718;SDS011;55696;52.138;5.444;2023-10-09T06:17:49;13.90;;;6.30;;
68718;SDS011;55696;52.138;5.444;2023-10-09T06:20:17;16.13;;;6.80;;
68718;SDS011;55696;52.138;5.444;2023-10-09T06:23:02;12.10;;;5.88;;
68718;SDS011;55696;52.138;5.444;2023-10-09T06:25:49;15.30;;;6.72;;
68718;SDS011;55696;52.138;5.444;2023-10-09T06:28:19;14.52;;;6.30;;
68718;SDS011;55696;52.138;5.444;2023-10-09T06:30:59;17.08;;;6.60;;
68718;SDS011;55696;52.138;5.444;2023-10-09T06:33:46;16.77;;;6.03;;
68718;SDS011;55696;52.138;5.444;2023-10-09T06:36:41;14.40;;;6.13;;
68718;SDS011;55696;52.138;5.444;2023-10-09T06:39:19;13.40;;;6.03;;
68718;SDS011;55696;52.138;5.444;2023-10-09T06:42:05;19.92;;;7.47;;
68718;SDS011;55696;52.138;5.444;2023-10-09T06:44:44;14.32;;;5.22;;
68718;SDS011;55696;52.138;5.444;2023-10-09T06:47:20;14.67;;;5.87;;
68718;SDS011;55696;52.138;5.444;2023-10-09T06:49:50;18.42;;;8.00;;
68718;SDS011;55696;52.138;5.444;2023-10-09T06:52:51;17.77;;;6.88;;
68718;SDS011;55696;52.138;5.444;2023-10-09T06:55:38;19.92;;;7.03;;
68718;SDS011;55696;52.138;5.444;2023-10-09T06:58:18;19.27;;;7.13;;
68718;SDS011;55696;52.138;5.444;2023-10-09T07:01:09;14.97;;;6.67;;
68718;SDS011;55696;52.138;5.444;2023-10-09T07:04:02;19.45;;;7.22;;
68718;SDS011;55696;52.138;5.444;2023-10-09T07:06:48;14.70;;;6.35;;
68718;SDS011;55696;52.138;5.444;2023-10-09T07:09:17;16.70;;;6.85;;
68718;SDS011;55696;52.138;5.444;2023-10-09T07:11:48;12.20;;;6.32;;
68718;SDS011;55696;52.138;5.444;2023-10-09T07:14:16;22.53;;;9.53;;
68718;SDS011;55696;52.138;5.444;2023-10-09T07:17:08;15.23;;;6.80;;
68718;SDS011;55696;52.138;5.444;2023-10-09T07:19:49;13.65;;;6.60;;
68718;SDS011;55696;52.138;5.444;2023-10-09T07:22:17;16.35;;;6.65;;
68718;SDS011;55696;52.138;5.444;2023-10-09T07:24:48;14.35;;;6.68;;
68718;SDS011;55696;52.138;5.444;2023-10-09T07:27:29;17.70;;;6.80;;
68718;SDS011;55696;52.138;5.444;2023-10-09T07:30:20;20.38;;;8.90;;
68718;SDS011;55696;52.138;5.444;2023-10-09T07:33:03;14.40;;;6.80;;
68718;SDS011;55696;52.138;5.444;2023-10-09T07:35:52;15.02;;;6.35;;
68718;SDS011;55696;52.138;5.444;2023-10-09T07:38:19;18.92;;;7.28;;
68718;SDS011;55696;52.138;5.444;2023-10-09T07:40:55;15.60;;;7.10;;
68718;SDS011;55696;52.138;5.444;2023-10-09T07:43:28;16.55;;;7.05;;
68718;SDS011;55696;52.138;5.444;2023-10-09T07:46:02;18.25;;;7.10;;
68718;SDS011;55696;52.138;5.444;2023-10-09T07:48:48;14.82;;;7.13;;
68718;SDS011;55696;52.138;5.444;2023-10-09T07:51:20;17.60;;;6.30;;
68718;SDS011;55696;52.138;5.444;2023-10-09T07:53:50;19.37;;;7.40;;
68718;SDS011;55696;52.138;5.444;2023-10-09T07:56:23;13.13;;;6.60;;
68718;SDS011;55696;52.138;5.444;2023-10-09T07:58:51;12.38;;;6.35;;
68718;SDS011;55696;52.138;5.444;2023-10-09T08:01:18;15.38;;;6.05;;
68718;SDS011;55696;52.138;5.444;2023-10-09T08:04:04;14.43;;;6.40;;
68718;SDS011;55696;52.138;5.444;2023-10-09T08:06:41;14.03;;;6.97;;
68718;SDS011;55696;52.138;5.444;2023-10-09T08:09:29;17.45;;;6.78;;
68718;SDS011;55696;52.138;5.444;2023-10-09T08:12:14;17.00;;;7.18;;
68718;SDS011;55696;52.138;5.444;2023-10-09T08:15:05;21.48;;;7.25;;
68718;SDS011;55696;52.138;5.444;2023-10-09T08:20:25;16.33;;;7.37;;
68718;SDS011;55696;52.138;5.444;2023-10-09T08:22:53;16.80;;;6.75;;
68718;SDS011;55696;52.138;5.444;2023-10-09T08:25:24;14.77;;;7.15;;
68718;SDS011;55696;52.138;5.444;2023-10-09T08:27:53;19.88;;;8.80;;
68718;SDS011;55696;52.138;5.444;2023-10-09T08:30:25;15.82;;;6.78;;
68718;SDS011;55696;52.138;5.444;2023-10-09T08:32:52;14.50;;;6.90;;
68718;SDS011;55696;52.138;5.444;2023-10-09T08:35:54;20.95;;;7.00;;
68718;SDS011;55696;52.138;5.444;2023-10-09T08:38:28;15.95;;;7.22;;
68718;SDS011;55696;52.138;5.444;2023-10-09T08:41:09;16.95;;;7.20;;
68718;SDS011;55696;52.138;5.444;2023-10-09T08:43:48;14.57;;;7.10;;
68718;SDS011;55696;52.138;5.444;2023-10-09T08:46:24;19.10;;;6.87;;
68718;SDS011;55696;52.138;5.444;2023-10-09T08:48:55;15.25;;;6.85;;
68718;SDS011;55696;52.138;5.444;2023-10-09T08:51:23;19.50;;;6.60;;
68718;SDS011;55696;52.138;5.444;2023-10-09T08:53:52;14.32;;;6.05;;
68718;SDS011;55696;52.138;5.444;2023-10-09T08:56:20;15.43;;;5.90;;
68718;SDS011;55696;52.138;5.444;2023-10-09T08:58:57;16.30;;;6.13;;
68718;SDS011;55696;52.138;5.444;2023-10-09T09:01:28;17.67;;;5.63;;
68718;SDS011;55696;52.138;5.444;2023-10-09T09:03:58;19.50;;;5.85;;
68718;SDS011;55696;52.138;5.444;2023-10-09T09:06:35;16.88;;;6.15;;
68718;SDS011;55696;52.138;5.444;2023-10-09T09:09:13;17.75;;;6.90;;
68718;SDS011;55696;52.138;5.444;2023-10-09T09:11:42;16.03;;;5.70;;
68718;SDS011;55696;52.138;5.444;2023-10-09T09:14:16;10.88;;;5.53;;
68718;SDS011;55696;52.138;5.444;2023-10-09T09:16:45;14.55;;;5.82;;
68718;SDS011;55696;52.138;5.444;2023-10-09T09:19:15;12.35;;;5.88;;
68718;SDS011;55696;52.138;5.444;2023-10-09T09:21:49;12.27;;;5.50;;
68718;SDS011;55696;52.138;5.444;2023-10-09T09:24:21;17.17;;;6.90;;
68718;SDS011;55696;52.138;5.444;2023-10-09T09:26:51;14.73;;;5.75;;
68718;SDS011;55696;52.138;5.444;2023-10-09T09:29:38;13.45;;;5.35;;
68718;SDS011;55696;52.138;5.444;2023-10-09T09:32:10;12.48;;;5.55;;
68718;SDS011;55696;52.138;5.444;2023-10-09T09:34:47;12.60;;;5.43;;
68718;SDS011;55696;52.138;5.444;2023-10-09T09:37:22;14.00;;;5.73;;
68718;SDS011;55696;52.138;5.444;2023-10-09T09:39:58;13.48;;;5.13;;
68718;SDS011;55696;52.138;5.444;2023-10-09T09:42:42;11.45;;;5.20;;
68718;SDS011;55696;52.138;5.444;2023-10-09T09:45:13;14.90;;;5.28;;
68718;SDS011;55696;52.138;5.444;2023-10-09T09:47:43;17.05;;;5.55;;
68718;SDS011;55696;52.138;5.444;2023-10-09T09:50:19;15.47;;;5.70;;
68718;SDS011;55696;52.138;5.444;2023-10-09T09:52:54;15.05;;;5.45;;
68718;SDS011;55696;52.138;5.444;2023-10-09T09:55:24;13.70;;;5.30;;
68718;SDS011;55696;52.138;5.444;2023-10-09T09:57:58;16.85;;;6.20;;
68718;SDS011;55696;52.138;5.444;2023-10-09T10:00:31;14.15;;;5.13;;
68718;SDS011;55696;52.138;5.444;2023-10-09T10:03:13;18.97;;;5.87;;
68718;SDS011;55696;52.138;5.444;2023-10-09T10:05:45;19.67;;;5.82;;
68718;SDS011;55696;52.138;5.444;2023-10-09T10:08:19;13.13;;;5.53;;
68718;SDS011;55696;52.138;5.444;2023-10-09T10:10:47;20.95;;;5.43;;
68718;SDS011;55696;52.138;5.444;2023-10-09T10:16:10;15.27;;;5.43;;
68718;SDS011;55696;52.138;5.444;2023-10-09T10:21:27;14.45;;;5.85;;
68718;SDS011;55696;52.138;5.444;2023-10-09T10:23:58;11.50;;;4.72;;
68718;SDS011;55696;52.138;5.444;2023-10-09T10:26:32;17.00;;;5.30;;
68718;SDS011;55696;52.138;5.444;2023-10-09T10:32:01;17.65;;;5.55;;
68718;SDS011;55696;52.138;5.444;2023-10-09T10:40:06;17.50;;;5.47;;
68718;SDS011;55696;52.138;5.444;2023-10-09T10:42:47;16.17;;;5.90;;
68718;SDS011;55696;52.138;5.444;2023-10-09T10:45:34;12.52;;;4.78;;
68718;SDS011;55696;52.138;5.444;2023-10-09T10:48:02;10.60;;;5.05;;
68718;SDS011;55696;52.138;5.444;2023-10-09T10:50:35;11.32;;;4.75;;
68718;SDS011;55696;52.138;5.444;2023-10-09T10:58:41;13.73;;;5.00;;
68718;SDS011;55696;52.138;5.444;2023-10-09T11:01:21;16.38;;;4.72;;
68718;SDS011;55696;52.138;5.444;2023-10-09T11:03:52;11.93;;;4.57;;
68718;SDS011;55696;52.138;5.444;2023-10-09T11:06:29;14.02;;;5.32;;
68718;SDS011;55696;52.138;5.444;2023-10-09T11:09:04;10.40;;;4.33;;
68718;SDS011;55696;52.138;5.444;2023-10-09T11:11:48;13.00;;;4.43;;
68718;SDS011;55696;52.138;5.444;2023-10-09T11:14:22;17.30;;;5.53;;
68718;SDS011;55696;52.138;5.444;2023-10-09T11:16:51;13.48;;;5.00;;
68718;SDS011;55696;52.138;5.444;2023-10-09T11:19:24;13.57;;;5.05;;
68718;SDS011;55696;52.138;5.444;2023-10-09T11:21:55;11.37;;;4.47;;
68718;SDS011;55696;52.138;5.444;2023-10-09T11:24:32;12.27;;;4.65;;
68718;SDS011;55696;52.138;5.444;2023-10-09T11:27:04;11.68;;;5.20;;
68718;SDS011;55696;52.138;5.444;2023-10-09T11:29:33;18.73;;;5.43;;
68718;SDS011;55696;52.138;5.444;2023-10-09T11:32:20;11.88;;;4.50;;
68718;SDS011;55696;52.138;5.444;2023-10-09T11:35:09;10.47;;;4.47;;
68718;SDS011;55696;52.138;5.444;2023-10-09T11:37:54;10.82;;;4.53;;
68718;SDS011;55696;52.138;5.444;2023-10-09T11:40:29;16.42;;;4.93;;
68718;SDS011;55696;52.138;5.444;2023-10-09T11:43:11;10.70;;;4.63;;
68718;SDS011;55696;52.138;5.444;2023-10-09T11:45:40;11.63;;;4.38;;
68718;SDS011;55696;52.138;5.444;2023-10-09T11:48:20;10.27;;;4.30;;
68718;SDS011;55696;52.138;5.444;2023-10-09T11:51:12;10.13;;;4.10;;
68718;SDS011;55696;52.138;5.444;2023-10-09T11:53:45;10.32;;;4.53;;
68718;SDS011;55696;52.138;5.444;2023-10-09T11:56:16;14.80;;;4.47;;
68718;SDS011;55696;52.138;5.444;2023-10-09T11:58:49;12.00;;;4.60;;
68718;SDS011;55696;52.138;5.444;2023-10-09T12:01:19;10.33;;;4.43;;
68718;SDS011;55696;52.138;5.444;2023-10-09T12:03:49;11.63;;;4.57;;
68718;SDS011;55696;52.138;5.444;2023-10-09T12:06:18;13.00;;;4.70;;
68718;SDS011;55696;52.138;5.444;2023-10-09T12:08:48;13.77;;;5.07;;
68718;SDS011;55696;52.138;5.444;2023-10-09T12:11:15;14.95;;;5.25;;
68718;SDS011;55696;52.138;5.444;2023-10-09T12:13:57;15.10;;;4.73;;
68718;SDS011;55696;52.138;5.444;2023-10-09T12:16:27;16.48;;;4.90;;
68718;SDS011;55696;52.138;5.444;2023-10-09T12:18:55;11.63;;;4.72;;
68718;SDS011;55696;52.138;5.444;2023-10-09T12:21:22;14.65;;;5.75;;
68718;SDS011;55696;52.138;5.444;2023-10-09T12:23:50;12.77;;;4.90;;
68718;SDS011;55696;52.138;5.444;2023-10-09T12:26:17;11.77;;;4.73;;
68718;SDS011;55696;52.138;5.444;2023-10-09T12:28:44;15.18;;;5.22;;
68718;SDS011;55696;52.138;5.444;2023-10-09T12:31:13;12.27;;;4.78;;
68718;SDS011;55696;52.138;5.444;2023-10-09T12:33:47;13.50;;;5.57;;
68718;SDS011;55696;52.138;5.444;2023-10-09T12:36:16;13.85;;;4.70;;
68718;SDS011;55696;52.138;5.444;2023-10-09T12:38:47;14.23;;;4.73;;
68718;SDS011;55696;52.138;5.444;2023-10-09T12:41:19;13.55;;;5.03;;
68718;SDS011;55696;52.138;5.444;2023-10-09T12:43:53;14.77;;;5.35;;
68718;SDS011;55696;52.138;5.444;2023-10-09T12:46:21;14.85;;;4.72;;
68718;SDS011;55696;52.138;5.444;2023-10-09T12:48:52;13.30;;;4.85;;
68718;SDS011;55696;52.138;5.444;2023-10-09T12:51:21;13.10;;;4.73;;
68718;SDS011;55696;52.138;5.444;2023-10-09T12:53:56;13.88;;;4.22;;
68718;SDS011;55696;52.138;5.444;2023-10-09T12:56:23;13.88;;;5.20;;
68718;SDS011;55696;52.138;5.444;2023-10-09T12:58:59;18.23;;;4.60;;
68718;SDS011;55696;52.138;5.444;2023-10-09T13:01:28;14.48;;;5.55;;
68718;SDS011;55696;52.138;5.444;2023-10-09T13:04:09;13.67;;;5.87;;
68718;SDS011;55696;52.138;5.444;2023-10-09T13:06:38;12.00;;;4.38;;
68718;SDS011;55696;52.138;5.444;2023-10-09T13:09:11;11.43;;;5.28;;
68718;SDS011;55696;52.138;5.444;2023-10-09T13:11:43;9.25;;;4.40;;
68718;SDS011;55696;52.138;5.444;2023-10-09T13:14:11;19.73;;;6.63;;
68718;SDS011;55696;52.138;5.444;2023-10-09T13:16:43;16.13;;;5.57;;
68718;SDS011;55696;52.138;5.444;2023-10-09T13:19:12;13.95;;;5.22;;
68718;SDS011;55696;52.138;5.444;2023-10-09T13:21:39;15.27;;;4.75;;
68718;SDS011;55696;52.138;5.444;2023-10-09T13:24:06;15.13;;;4.97;;
68718;SDS011;55696;52.138;5.444;2023-10-09T13:26:40;16.25;;;5.97;;
68718;SDS011;55696;52.138;5.444;2023-10-09T13:29:09;12.50;;;5.60;;
68718;SDS011;55696;52.138;5.444;2023-10-09T13:31:38;14.05;;;5.15;;
68718;SDS011;55696;52.138;5.444;2023-10-09T13:34:12;12.70;;;5.78;;
68718;SDS011;55696;52.138;5.444;2023-10-09T13:36:42;14.27;;;5.10;;
68718;SDS011;55696;52.138;5.444;2023-10-09T13:39:19;13.32;;;4.78;;
68718;SDS011;55696;52.138;5.444;2023-10-09T13:41:46;11.93;;;5.20;;
68718;SDS011;55696;52.138;5.444;2023-10-09T13:44:14;14.23;;;5.45;;
68718;SDS011;55696;52.138;5.444;2023-10-09T13:46:42;16.77;;;5.28;;
68718;SDS011;55696;52.138;5.444;2023-10-09T13:49:09;17.30;;;5.30;;
68718;SDS011;55696;52.138;5.444;2023-10-09T13:51:43;16.83;;;6.25;;
68718;SDS011;55696;52.138;5.444;2023-10-09T13:54:11;16.93;;;4.93;;
68718;SDS011;55696;52.138;5.444;2023-10-09T13:56:48;18.80;;;5.75;;
68718;SDS011;55696;52.138;5.444;2023-10-09T13:59:20;10.93;;;4.60;;
68718;SDS011;55696;52.138;5.444;2023-10-09T14:01:49;13.43;;;4.78;;
68718;SDS011;55696;52.138;5.444;2023-10-09T14:04:16;20.13;;;5.00;;
68718;SDS011;55696;52.138;5.444;2023-10-09T14:06:45;11.43;;;4.40;;
68718;SDS011;55696;52.138;5.444;2023-10-09T14:09:13;12.82;;;4.13;;
68718;SDS011;55696;52.138;5.444;2023-10-09T14:11:59;10.80;;;4.03;;
68718;SDS011;55696;52.138;5.444;2023-10-09T14:14:34;17.08;;;4.82;;
68718;SDS011;55696;52.138;5.444;2023-10-09T14:17:07;12.98;;;4.30;;
68718;SDS011;55696;52.138;5.444;2023-10-09T14:19:41;13.77;;;4.43;;
68718;SDS011;55696;52.138;5.444;2023-10-09T14:22:17;11.82;;;4.57;;
68718;SDS011;55696;52.138;5.444;2023-10-09T14:24:45;12.35;;;4.50;;
68718;SDS011;55696;52.138;5.444;2023-10-09T14:27:16;11.55;;;4.68;;
68718;SDS011;55696;52.138;5.444;2023-10-09T14:29:48;13.90;;;4.72;;
68718;SDS011;55696;52.138;5.444;2023-10-09T14:32:16;12.23;;;4.80;;
68718;SDS011;55696;52.138;5.444;2023-10-09T14:34:43;14.52;;;5.30;;
68718;SDS011;55696;52.138;5.444;2023-10-09T14:37:17;18.73;;;5.90;;
68718;SDS011;55696;52.138;5.444;2023-10-09T14:39:46;12.82;;;4.97;;
68718;SDS011;55696;52.138;5.444;2023-10-09T14:42:16;15.68;;;4.93;;
68718;SDS011;55696;52.138;5.444;2023-10-09T14:44:46;15.90;;;4.23;;
68718;SDS011;55696;52.138;5.444;2023-10-09T14:47:14;15.60;;;4.93;;
68718;SDS011;55696;52.138;5.444;2023-10-09T14:49:41;13.07;;;4.95;;
68718;SDS011;55696;52.138;5.444;2023-10-09T14:52:13;15.00;;;4.50;;
68718;SDS011;55696;52.138;5.444;2023-10-09T14:54:45;12.18;;;4.00;;
68718;SDS011;55696;52.138;5.444;2023-10-09T14:57:13;14.13;;;4.83;;
68718;SDS011;55696;52.138;5.444;2023-10-09T14:59:40;16.40;;;5.68;;
68718;SDS011;55696;52.138;5.444;2023-10-09T15:02:10;15.10;;;5.22;;
68718;SDS011;55696;52.138;5.444;2023-10-09T15:04:39;11.60;;;5.47;;
68718;SDS011;55696;52.138;5.444;2023-10-09T15:07:06;13.45;;;4.82;;
68718;SDS011;55696;52.138;5.444;2023-10-09T15:09:34;14.50;;;5.30;;
68718;SDS011;55696;52.138;5.444;2023-10-09T15:12:03;14.93;;;5.07;;
68718;SDS011;55696;52.138;5.444;2023-10-09T15:14:33;16.60;;;6.03;;
68718;SDS011;55696;52.138;5.444;2023-10-09T15:17:00;13.40;;;5.72;;
68718;SDS011;55696;52.138;5.444;2023-10-09T15:19:28;14.98;;;5.40;;
68718;SDS011;55696;52.138;5.444;2023-10-09T15:21:56;13.00;;;5.40;;
68718;SDS011;55696;52.138;5.444;2023-10-09T15:24:25;17.52;;;5.68;;
68718;SDS011;55696;52.138;5.444;2023-10-09T15:26:54;13.40;;;6.28;;
68718;SDS011;55696;52.138;5.444;2023-10-09T15:29:25;15.30;;;5.22;;
68718;SDS011;55696;52.138;5.444;2023-10-09T15:31:58;16.13;;;5.68;;
68718;SDS011;55696;52.138;5.444;2023-10-09T15:34:41;13.97;;;5.63;;
68718;SDS011;55696;52.138;5.444;2023-10-09T15:37:08;15.32;;;6.53;;
68718;SDS011;55696;52.138;5.444;2023-10-09T15:39:35;14.77;;;5.18;;
68718;SDS011;55696;52.138;5.444;2023-10-09T15:42:02;15.65;;;6.15;;
68718;SDS011;55696;52.138;5.444;2023-10-09T15:44:33;22.63;;;7.50;;